Time;durP1;ratioP1;P1;durP2;ratioP2;P2;SDS_P1;SDS_P2;PMS_P1;PMS_P2;Temp;Humidity;BMP_temperature;BMP_pressure;BME280_temperature;BME280_humidity;BME280_pressure;Samples;Min_cycle;Max_cycle;Signal;HPM_P1;HPM_P2
2021/11/04 00:01:14;;;;;;;97.00;36.80;;;;;;;14.58;73.15;99871.84;27275;1217;3025695;-70
2021/11/04 00:03:44;;;;;;;90.40;37.60;;;;;;;14.22;74.04;99875.61;27252;1217;3050876;-68
2021/11/04 00:06:13;;;;;;;97.70;36.80;;;;;;;13.97;74.86;99876.08;27184;1209;3026044;-74
2021/11/04 00:08:42;;;;;;;81.10;32.60;;;;;;;13.71;75.86;99877.30;27210;1218;3048393;-71
2021/11/04 00:11:11;;;;;;;76.20;29.20;;;;;;;14.06;75.28;99878.78;27257;1218;3026151;-68
2021/11/04 00:13:40;;;;;;;102.60;39.60;;;;;;;14.38;73.91;99867.45;27264;1218;3054958;-68
2021/11/04 00:16:11;;;;;;;89.30;36.30;;;;;;;14.38;73.70;99872.00;27232;1209;3025975;-70
2021/11/04 00:18:41;;;;;;;147.70;47.60;;;;;;;14.26;73.72;99871.41;27231;1218;3026967;-69
2021/11/04 00:21:10;;;;;;;137.70;43.90;;;;;;;14.12;73.29;99880.13;27227;1209;3026171;-63
2021/11/04 00:23:39;;;;;;;103.30;37.50;;;;;;;13.93;73.29;99886.56;27198;1218;3049963;-73
2021/11/04 00:26:08;;;;;;;102.80;35.80;;;;;;;13.72;74.17;99890.77;27294;1217;3026311;-65
2021/11/04 00:28:37;;;;;;;100.10;32.80;;;;;;;14.15;74.07;99890.47;27207;1218;3055678;-66
2021/11/04 00:31:07;;;;;;;99.40;36.50;;;;;;;14.51;72.51;99885.57;27238;1218;3026356;-68
2021/11/04 00:33:36;;;;;;;115.90;36.80;;;;;;;14.43;72.47;99893.10;27253;1217;3026402;-67
2021/11/04 00:36:06;;;;;;;160.80;32.40;;;;;;;14.11;73.37;99905.95;27228;1218;3026843;-66
2021/11/04 00:38:35;;;;;;;167.00;28.50;;;;;;;13.69;75.18;99917.34;27174;1217;3026840;-70
2021/11/04 00:41:04;;;;;;;201.70;29.30;;;;;;;13.35;76.71;99918.17;27253;1217;3028710;-68
2021/11/04 00:43:33;;;;;;;45.80;22.60;;;;;;;13.17;77.32;99923.52;27241;1218;3049247;-70
2021/11/04 00:46:02;;;;;;;53.30;23.40;;;;;;;13.62;76.20;99917.13;27267;1217;3028322;-68
2021/11/04 00:48:31;;;;;;;78.20;32.20;;;;;;;14.08;74.10;99912.81;27246;1218;3054196;-69
2021/11/04 00:51:00;;;;;;;135.10;35.60;;;;;;;14.00;74.13;99913.67;27190;1217;3025674;-68
2021/11/04 00:53:29;;;;;;;172.90;40.00;;;;;;;13.70;75.15;99922.98;27185;1217;3048916;-74
2021/11/04 00:56:00;;;;;;;165.70;43.60;;;;;;;13.41;76.09;99927.27;27262;1218;3028482;-69
2021/11/04 00:58:29;;;;;;;199.50;47.80;;;;;;;13.06;77.34;99930.23;27199;1217;3060680;-69
2021/11/04 01:00:57;;;;;;;147.80;43.50;;;;;;;12.77;78.33;99937.08;27215;1218;3026185;-69
2021/11/04 01:03:27;;;;;;;151.90;45.40;;;;;;;12.94;77.82;99939.38;27240;1217;3051569;-65
2021/11/04 01:05:57;;;;;;;140.50;44.40;;;;;;;13.29;76.60;99940.70;27282;1217;3026271;-74
2021/11/04 01:08:26;;;;;;;150.40;40.80;;;;;;;13.40;75.65;99942.30;27217;1217;3026450;-70
2021/11/04 01:10:56;;;;;;;143.20;36.30;;;;;;;13.21;76.22;99948.58;27197;1218;3053921;-70
2021/11/04 01:13:25;;;;;;;194.80;44.10;;;;;;;12.98;76.74;99950.23;27204;1218;3025811;-69
2021/11/04 01:15:55;;;;;;;94.50;32.70;;;;;;;12.67;77.77;99954.91;27193;1218;3053937;-74
2021/11/04 01:18:24;;;;;;;96.10;30.30;;;;;;;12.99;77.32;99950.67;27256;1218;3026391;-75
2021/11/04 01:20:53;;;;;;;91.50;33.80;;;;;;;13.33;75.54;99948.70;27230;1218;3050989;-68
2021/11/04 01:23:22;;;;;;;98.70;30.70;;;;;;;13.28;75.71;99950.61;27222;1217;3026204;-74
2021/11/04 01:25:51;;;;;;;124.00;29.40;;;;;;;13.09;76.13;99949.88;27233;1218;3067899;-71
2021/11/04 01:28:20;;;;;;;157.00;29.00;;;;;;;12.96;76.21;99949.81;27217;1218;3025998;-66
2021/11/04 01:30:48;;;;;;;180.00;28.90;;;;;;;12.75;76.46;99944.25;27220;1217;3050666;-67
2021/11/04 01:33:18;;;;;;;48.90;22.50;;;;;;;12.57;77.15;99943.60;27224;1217;3026146;-68
2021/11/04 01:35:46;;;;;;;62.80;23.80;;;;;;;13.05;75.71;99935.21;27240;1218;3051823;-67
2021/11/04 01:38:18;;;;;;;84.40;28.70;;;;;;;13.52;74.14;99934.52;27229;1218;3027939;-71
2021/11/04 01:40:47;;;;;;;85.30;26.20;;;;;;;13.46;73.89;99932.58;27247;1217;3049185;-69
2021/11/04 01:43:17;;;;;;;109.90;27.20;;;;;;;13.27;74.35;99933.47;27185;1218;3028460;-70
2021/11/04 01:46:11;;;;;;;127.80;24.50;;;;;;;13.02;75.05;99932.94;27205;1217;3028377;-65
2021/11/04 01:48:40;;;;;;;98.90;24.60;;;;;;;12.75;75.72;99944.05;27189;1217;3067282;-71
2021/11/04 01:51:09;;;;;;;41.60;18.40;;;;;;;12.66;75.77;99945.87;27181;1218;3025854;-71
2021/11/04 01:53:38;;;;;;;43.70;19.50;;;;;;;13.13;75.07;99940.85;27233;1218;3049751;-71
2021/11/04 01:56:07;;;;;;;60.10;22.90;;;;;;;13.66;73.32;99938.67;27233;1217;3027700;-67
2021/11/04 01:58:36;;;;;;;80.60;23.10;;;;;;;13.58;72.89;99941.66;27224;1218;3050849;-68
2021/11/04 02:01:05;;;;;;;90.50;24.10;;;;;;;13.30;73.56;99943.27;27220;1217;3026162;-66
2021/11/04 02:04:03;;;;;;;125.30;26.20;;;;;;;12.96;74.91;99951.39;27197;1217;3051167;-70
2021/11/04 02:06:38;;;;;;;136.90;25.50;;;;;;;12.67;75.98;99958.45;27239;1217;3054816;-66
2021/11/04 02:09:13;;;;;;;47.60;21.60;;;;;;;12.46;77.20;99960.80;27236;1218;3052803;-67
2021/11/04 02:11:59;;;;;;;51.40;20.10;;;;;;;12.96;75.73;99963.52;27244;1217;3068812;-75
2021/11/04 02:14:37;;;;;;;70.70;26.20;;;;;;;13.25;74.52;99959.80;27221;1217;3047703;-70
2021/11/04 02:17:06;;;;;;;74.90;25.00;;;;;;;13.14;74.76;99970.50;27204;1218;3051770;-71
2021/11/04 02:19:45;;;;;;;101.80;26.30;;;;;;;13.02;74.89;99975.25;27242;1218;3026127;-68
2021/11/04 02:22:20;;;;;;;99.80;26.50;;;;;;;12.83;75.39;99980.29;27279;1217;3048643;-72
2021/11/04 02:25:01;;;;;;;89.70;26.30;;;;;;;12.63;76.32;99984.52;27213;1218;3051946;-63
2021/11/04 02:27:31;;;;;;;48.40;21.20;;;;;;;12.48;77.13;99989.34;27225;1217;3054506;-67
2021/11/04 02:29:59;;;;;;;49.30;20.80;;;;;;;12.92;76.24;99995.94;27222;1218;3025843;-72
2021/11/04 02:32:29;;;;;;;61.70;25.10;;;;;;;13.34;74.69;99994.05;27208;1217;3053830;-74
2021/11/04 02:34:58;;;;;;;77.30;26.20;;;;;;;13.34;74.47;100003.38;27222;1218;3027514;-72
2021/11/04 02:37:28;;;;;;;113.90;27.80;;;;;;;13.15;74.63;100003.14;27236;1217;3047995;-73
2021/11/04 02:39:56;;;;;;;113.20;29.00;;;;;;;12.87;75.72;100015.59;27201;1217;3025971;-71
2021/11/04 02:42:26;;;;;;;157.00;31.10;;;;;;;12.66;76.64;100015.66;27501;1217;3026187;-65
2021/11/04 02:44:54;;;;;;;64.80;25.10;;;;;;;12.44;77.48;100025.54;27201;1217;3049188;-65
2021/11/04 02:47:23;;;;;;;53.70;21.70;;;;;;;12.89;76.55;100029.52;27239;1218;3026486;-74
2021/11/04 02:49:53;;;;;;;80.70;28.30;;;;;;;13.36;75.06;100027.55;27216;1218;3070468;-74
2021/11/04 02:52:23;;;;;;;81.10;28.50;;;;;;;13.29;74.62;100037.45;27180;1218;3027819;-65
2021/11/04 02:54:53;;;;;;;107.20;28.30;;;;;;;13.05;75.50;100048.42;27227;1210;3027017;-66
2021/11/04 02:57:22;;;;;;;152.60;28.90;;;;;;;12.86;76.25;100050.63;27271;1217;3028149;-66
2021/11/04 02:59:51;;;;;;;145.10;28.00;;;;;;;12.72;76.55;100045.84;27228;1218;3026806;-71
2021/11/04 03:02:20;;;;;;;57.90;24.10;;;;;;;12.69;76.48;100043.25;27218;1217;3050439;-69
2021/11/04 03:04:48;;;;;;;47.30;20.90;;;;;;;13.24;75.32;100047.25;27262;1217;3026235;-74
2021/11/04 03:07:18;;;;;;;70.60;27.10;;;;;;;13.82;74.13;100042.02;27198;1218;3048169;-68
2021/11/04 03:09:46;;;;;;;92.10;26.80;;;;;;;13.80;73.14;100043.90;27200;1217;3026044;-69
2021/11/04 03:12:15;;;;;;;96.30;26.60;;;;;;;13.51;73.93;100050.85;27186;1217;3067702;-71
2021/11/04 03:14:44;;;;;;;95.10;29.50;;;;;;;13.33;74.42;100048.60;27233;1218;3025848;-63
2021/11/04 03:17:13;;;;;;;101.10;30.30;;;;;;;13.13;75.16;100047.79;27201;1218;3049961;-72
2021/11/04 03:19:42;;;;;;;51.10;21.90;;;;;;;12.93;76.22;100046.87;27196;1209;3028910;-70
2021/11/04 03:22:11;;;;;;;51.00;22.30;;;;;;;13.41;75.21;100037.98;27189;1218;3026410;-74
2021/11/04 03:24:40;;;;;;;71.40;28.10;;;;;;;13.81;73.74;100032.45;27229;1217;3052778;-72
2021/11/04 03:27:09;;;;;;;77.70;25.00;;;;;;;13.79;73.66;100031.29;27259;1217;3026022;-64
2021/11/04 03:29:40;;;;;;;85.40;26.00;;;;;;;13.63;73.85;100034.98;27231;1218;3053749;-74
2021/11/04 03:32:16;;;;;;;102.30;26.00;;;;;;;13.38;74.78;100038.84;27260;1217;3026727;-69
2021/11/04 03:34:45;;;;;;;95.90;25.70;;;;;;;13.16;75.56;100038.23;27203;1217;3067744;-68
2021/11/04 03:37:16;;;;;;;46.00;20.00;;;;;;;13.00;76.15;100035.02;27215;1218;3027797;-71
2021/11/04 03:39:45;;;;;;;50.70;20.90;;;;;;;13.45;75.08;100029.39;27226;1217;3026506;-70
2021/11/04 03:42:15;;;;;;;48.50;21.30;;;;;;;13.81;73.63;100025.89;27265;1217;3026468;-69
2021/11/04 03:44:46;;;;;;;45.50;22.10;;;;;;;13.81;72.64;100029.94;27185;1218;3051332;-67
2021/11/04 03:47:16;;;;;;;54.70;24.70;;;;;;;13.67;73.01;100042.27;27198;1218;3026206;-73
2021/11/04 03:49:49;;;;;;;56.60;24.80;;;;;;;13.51;73.60;100049.30;27207;1218;3070854;-73
2021/11/04 03:52:19;;;;;;;61.30;26.50;;;;;;;13.29;74.40;100056.98;27273;1217;3026174;-75
2021/11/04 03:54:48;;;;;;;42.80;19.60;;;;;;;13.04;75.78;100065.38;27193;1217;3027022;-68
2021/11/04 03:57:18;;;;;;;46.50;21.70;;;;;;;13.44;74.74;100059.36;27224;1217;3026546;-72
2021/11/04 03:59:46;;;;;;;48.30;23.20;;;;;;;13.74;73.39;100059.23;27197;1218;3050196;-71
2021/11/04 04:02:15;;;;;;;52.60;23.90;;;;;;;13.58;73.31;100076.83;27176;1216;3026480;-68
2021/11/04 04:04:55;;;;;;;46.10;21.90;;;;;;;13.20;74.84;100096.61;27216;1218;3071331;-71
2021/11/04 04:07:26;;;;;;;52.60;23.60;;;;;;;13.05;75.40;100097.13;27243;1216;3049053;-70
2021/11/04 04:09:55;;;;;;;51.10;23.20;;;;;;;12.88;75.89;100095.71;27251;1216;3025998;-65
2021/11/04 04:12:24;;;;;;;43.50;19.60;;;;;;;12.57;77.57;100107.00;27233;1216;3028105;-65
2021/11/04 04:14:54;;;;;;;42.30;18.00;;;;;;;12.90;76.67;100117.70;27203;1217;3050919;-68
2021/11/04 04:17:23;;;;;;;49.30;21.60;;;;;;;13.45;74.67;100113.75;27234;1209;3025829;-65
2021/11/04 04:19:52;;;;;;;49.80;22.60;;;;;;;13.49;74.13;100115.73;27164;1218;3069827;-72
2021/11/04 04:22:22;;;;;;;51.90;23.80;;;;;;;13.38;74.43;100116.45;27183;1217;3026601;-66
2021/11/04 04:24:52;;;;;;;55.00;22.80;;;;;;;13.18;75.09;100110.58;27212;1216;3026274;-68
2021/11/04 04:27:21;;;;;;;46.80;22.30;;;;;;;12.91;75.79;100108.16;27217;1218;3025870;-67
2021/11/04 04:29:50;;;;;;;42.20;19.40;;;;;;;12.79;76.17;100112.05;27189;1216;3050146;-67
2021/11/04 04:32:19;;;;;;;39.50;17.80;;;;;;;13.26;75.34;100107.11;27234;1209;3026040;-70
2021/11/04 04:34:48;;;;;;;59.30;24.80;;;;;;;13.77;73.74;100099.04;27208;1216;3070544;-66
2021/11/04 04:37:17;;;;;;;56.80;24.20;;;;;;;13.74;73.40;100104.16;27213;1218;3025983;-63
2021/11/04 04:39:45;;;;;;;55.90;23.20;;;;;;;13.47;74.27;100116.59;27181;1218;3051234;-64
2021/11/04 04:42:14;;;;;;;65.00;26.20;;;;;;;13.24;75.01;100123.64;27190;1209;3026096;-70
2021/11/04 04:44:44;;;;;;;70.00;25.30;;;;;;;13.00;76.07;100135.24;27212;1216;3053596;-74
2021/11/04 04:47:12;;;;;;;46.00;19.70;;;;;;;12.87;76.18;100141.13;27249;1218;3026222;-71
2021/11/04 04:49:42;;;;;;;48.10;19.10;;;;;;;13.14;75.80;100138.98;27212;1216;3049181;-74
2021/11/04 04:52:11;;;;;;;50.70;21.80;;;;;;;13.40;74.37;100131.64;27280;1217;3025959;-73
2021/11/04 04:54:40;;;;;;;49.30;22.50;;;;;;;13.52;74.05;100130.73;27205;1218;3054884;-66
2021/11/04 04:57:09;;;;;;;50.70;21.20;;;;;;;13.36;74.35;100130.98;27276;1218;3026094;-67
2021/11/04 04:59:38;;;;;;;56.20;23.40;;;;;;;13.21;74.70;100141.17;27222;1217;3053172;-70
2021/11/04 05:02:07;;;;;;;52.70;22.40;;;;;;;13.01;75.40;100151.88;27291;1209;3026229;-65
2021/11/04 05:04:36;;;;;;;44.70;18.30;;;;;;;12.87;75.95;100152.23;27223;1217;3028187;-70
2021/11/04 05:07:05;;;;;;;47.70;18.90;;;;;;;13.32;75.21;100146.02;27221;1217;3054182;-67
2021/11/04 05:09:34;;;;;;;50.70;22.70;;;;;;;13.79;73.50;100139.40;27208;1217;3027361;-66
2021/11/04 05:12:03;;;;;;;53.30;23.10;;;;;;;13.83;73.23;100142.34;27220;1216;3051579;-66
2021/11/04 05:14:32;;;;;;;46.70;22.10;;;;;;;13.70;73.32;100142.59;27213;1216;3025854;-72
2021/11/04 05:17:02;;;;;;;50.80;21.10;;;;;;;13.50;73.38;100145.23;27207;1216;3026554;-70
2021/11/04 05:19:32;;;;;;;48.30;21.70;;;;;;;13.27;74.42;100151.77;27245;1218;3052547;-73
2021/11/04 05:22:01;;;;;;;44.50;18.30;;;;;;;13.09;74.88;100153.02;27235;1209;3026084;-63
2021/11/04 05:24:34;;;;;;;40.30;17.20;;;;;;;13.55;73.81;100150.41;27216;1217;3048150;-68
2021/11/04 05:27:04;;;;;;;55.20;21.40;;;;;;;13.96;72.26;100153.33;27215;1217;3026446;-67
2021/11/04 05:29:33;;;;;;;51.50;21.80;;;;;;;13.84;72.24;100164.77;27268;1216;3027941;-66
2021/11/04 05:32:06;;;;;;;56.80;22.70;;;;;;;13.62;72.90;100177.59;27232;1216;3026107;-69
2021/11/04 05:34:36;;;;;;;64.20;26.60;;;;;;;13.38;73.80;100184.89;27208;1218;3052225;-73
2021/11/04 05:37:06;;;;;;;58.10;24.00;;;;;;;13.15;74.77;100189.77;27192;1218;3026475;-75
2021/11/04 05:39:36;;;;;;;52.10;19.10;;;;;;;12.91;75.62;100188.87;27215;1216;3026170;-68
2021/11/04 05:42:05;;;;;;;45.00;18.80;;;;;;;13.41;74.53;100182.38;27228;1218;3026643;-66
2021/11/04 05:44:36;;;;;;;61.60;24.20;;;;;;;13.93;72.66;100177.59;27256;1218;3026951;-67
2021/11/04 05:47:05;;;;;;;68.30;25.70;;;;;;;13.82;72.46;100189.21;27223;1217;3027669;-74
2021/11/04 05:49:34;;;;;;;81.40;29.40;;;;;;;13.51;73.43;100196.95;27234;1216;3026243;-68
2021/11/04 05:52:04;;;;;;;86.40;28.60;;;;;;;13.26;74.45;100201.95;27193;1217;3026694;-68
2021/11/04 05:54:33;;;;;;;80.90;29.80;;;;;;;13.00;75.23;100200.34;27253;1218;3026368;-68
2021/11/04 05:57:02;;;;;;;68.70;24.70;;;;;;;12.89;75.46;100210.61;27203;1216;3069677;-70
2021/11/04 05:59:31;;;;;;;67.20;23.50;;;;;;;13.28;74.92;100206.55;27201;1217;3026156;-74
2021/11/04 06:02:00;;;;;;;78.50;27.80;;;;;;;13.68;73.41;100206.14;27211;1217;3026294;-70
2021/11/04 06:04:36;;;;;;;88.10;31.00;;;;;;;13.67;73.17;100209.17;27167;1218;3069088;-68
2021/11/04 06:07:05;;;;;;;92.00;31.80;;;;;;;13.39;73.76;100209.26;27224;1209;3051096;-70
2021/11/04 06:09:34;;;;;;;93.30;32.30;;;;;;;13.12;74.54;100209.27;27192;1218;3026255;-77
2021/11/04 06:12:03;;;;;;;94.00;31.40;;;;;;;12.85;75.36;100217.85;27219;1217;3026434;-70
2021/11/04 06:14:52;;;;;;;78.00;26.70;;;;;;;12.63;76.63;100219.88;27222;1218;3051651;-68
2021/11/04 06:17:21;;;;;;;73.20;24.20;;;;;;;13.20;74.68;100207.73;27283;1216;3028078;-64
2021/11/04 06:19:50;;;;;;;89.50;31.80;;;;;;;13.65;73.45;100203.31;27178;1216;3070303;-76
2021/11/04 06:22:19;;;;;;;87.80;30.80;;;;;;;13.66;72.97;100194.63;27222;1217;3027679;-75
2021/11/04 06:24:49;;;;;;;90.00;34.00;;;;;;;13.43;73.78;100193.52;27180;1217;3053114;-73
2021/11/04 06:27:17;;;;;;;93.50;33.60;;;;;;;13.17;74.75;100198.95;27212;1216;3025972;-70
2021/11/04 06:29:46;;;;;;;102.70;35.10;;;;;;;12.97;75.23;100206.30;27280;1216;3051865;-70
2021/11/04 06:32:15;;;;;;;71.80;25.60;;;;;;;12.67;76.29;100216.26;27239;1216;3026844;-76
2021/11/04 06:34:44;;;;;;;60.60;22.80;;;;;;;13.07;75.42;100216.59;27200;1216;3051818;-72
2021/11/04 06:37:13;;;;;;;69.50;25.30;;;;;;;13.44;74.09;100205.80;27201;1218;3026806;-64
2021/11/04 06:39:43;;;;;;;72.10;25.70;;;;;;;13.28;73.77;100200.73;27214;1217;3057484;-66
2021/11/04 06:42:11;;;;;;;63.80;26.10;;;;;;;13.08;73.95;100201.42;27224;1216;3027991;-62
2021/11/04 06:44:41;;;;;;;70.50;28.40;;;;;;;12.84;75.04;100202.84;27199;1218;3054304;-67
2021/11/04 06:47:14;;;;;;;70.40;27.80;;;;;;;12.68;75.76;100203.58;27205;1216;3026518;-71
2021/11/04 06:49:43;;;;;;;59.40;21.90;;;;;;;12.60;76.27;100206.85;27202;1216;3027034;-66
2021/11/04 06:52:12;;;;;;;58.20;22.80;;;;;;;13.00;75.48;100203.45;27213;1218;3026074;-69
2021/11/04 06:54:41;;;;;;;71.40;28.10;;;;;;;13.33;74.27;100203.85;27219;1218;3025999;-71
2021/11/04 06:57:16;;;;;;;83.00;31.20;;;;;;;13.11;74.50;100208.82;27189;1217;3049229;-70
2021/11/04 06:59:48;;;;;;;77.40;29.90;;;;;;;13.02;75.09;100211.08;27216;1216;3051939;-72
2021/11/04 07:02:43;;;;;;;94.90;32.30;;;;;;;12.72;76.14;100213.54;27210;1217;3027437;-68
2021/11/04 07:05:13;;;;;;;94.00;33.00;;;;;;;12.51;76.88;100212.27;27219;1218;3070979;-73
2021/11/04 07:07:51;;;;;;;74.80;27.40;;;;;;;12.37;77.26;100206.75;27200;1218;3026615;-68
2021/11/04 07:10:31;;;;;;;75.00;28.30;;;;;;;12.96;75.40;100195.77;27233;1216;3054394;-72
2021/11/04 07:13:00;;;;;;;86.00;34.70;;;;;;;13.39;74.22;100183.95;27232;1218;3026746;-64
2021/11/04 07:15:29;;;;;;;106.40;41.40;;;;;;;13.52;73.34;100171.20;27218;1218;3050079;-66
2021/11/04 07:17:58;;;;;;;104.50;38.20;;;;;;;13.42;73.51;100170.58;27266;1209;3026311;-69
2021/11/04 07:20:27;;;;;;;99.40;39.10;;;;;;;13.23;74.35;100168.85;27219;1216;3068054;-71
2021/11/04 07:22:56;;;;;;;116.90;41.10;;;;;;;13.06;74.74;100175.15;27222;1216;3025732;-75
2021/11/04 07:25:26;;;;;;;84.00;33.10;;;;;;;12.78;76.05;100186.31;27232;1216;3048912;-65
2021/11/04 07:27:59;;;;;;;77.10;29.80;;;;;;;13.23;75.10;100192.77;27242;1218;3027335;-72
2021/11/04 07:30:29;;;;;;;114.80;42.30;;;;;;;13.64;73.21;100194.52;27228;1218;3026098;-68
2021/11/04 07:33:05;;;;;;;92.60;37.70;;;;;;;13.46;73.26;100192.48;27236;1216;3026500;-72
2021/11/04 07:35:37;;;;;;;107.40;42.40;;;;;;;13.13;73.97;100188.14;27236;1218;3054049;-66
2021/11/04 07:38:08;;;;;;;100.20;39.20;;;;;;;13.05;74.38;100183.33;27259;1216;3027923;-75
2021/11/04 07:40:37;;;;;;;102.40;40.20;;;;;;;12.76;75.28;100181.15;27223;1217;3027323;-64
2021/11/04 07:43:08;;;;;;;94.30;34.70;;;;;;;12.62;75.94;100183.89;27217;1218;3026388;-72
2021/11/04 07:45:37;;;;;;;91.50;33.90;;;;;;;13.01;75.01;100188.09;27236;1217;3026207;-71
2021/11/04 07:48:06;;;;;;;108.80;41.90;;;;;;;13.56;73.40;100197.34;27241;1218;3026621;-69
2021/11/04 07:50:35;;;;;;;107.20;42.30;;;;;;;13.53;73.04;100208.06;27271;1217;3052157;-71
2021/11/04 07:53:04;;;;;;;101.80;40.20;;;;;;;13.19;73.95;100204.98;27230;1208;3026250;-73
2021/11/04 07:55:34;;;;;;;116.40;44.00;;;;;;;13.00;74.82;100209.13;27201;1216;3026838;-69
2021/11/04 07:58:03;;;;;;;102.30;40.30;;;;;;;12.90;75.25;100215.50;27241;1217;3026070;-73
2021/11/04 08:00:32;;;;;;;92.30;34.50;;;;;;;12.87;74.94;100222.02;27212;1218;3050092;-68
2021/11/04 08:03:01;;;;;;;84.90;30.80;;;;;;;13.37;74.24;100220.67;27257;1216;3026614;-71
2021/11/04 08:05:30;;;;;;;108.80;41.60;;;;;;;13.98;72.12;100231.05;27205;1218;3052869;-69
2021/11/04 08:08:01;;;;;;;106.00;41.00;;;;;;;13.88;71.47;100237.98;27207;1218;3026151;-77
2021/11/04 08:10:30;;;;;;;91.10;37.40;;;;;;;13.69;72.10;100240.52;27204;1218;3026317;-71
2021/11/04 08:13:03;;;;;;;100.80;38.50;;;;;;;13.50;72.21;100236.07;27189;1218;3054554;-69
2021/11/04 08:15:36;;;;;;;95.70;39.90;;;;;;;13.34;73.01;100236.63;27235;1218;3051285;-68
2021/11/04 08:18:25;;;;;;;97.00;41.30;;;;;;;13.28;73.19;100239.31;27206;1218;3068753;-71
2021/11/04 08:20:54;;;;;;;57.40;25.00;;;;;;;13.01;72.68;100240.86;27238;1218;3026213;-74
2021/11/04 08:23:25;;;;;;;46.50;22.10;;;;;;;13.27;71.28;100234.58;27277;1219;3052113;-73
2021/11/04 08:25:55;;;;;;;60.70;27.40;;;;;;;13.70;69.00;100227.33;27278;1218;3026171;-74
2021/11/04 08:28:23;;;;;;;53.50;26.00;;;;;;;13.72;68.94;100214.31;27361;1218;3025924;-68
2021/11/04 08:30:52;;;;;;;70.90;32.00;;;;;;;13.66;69.50;100222.81;27204;1219;3049869;-68
2021/11/04 08:33:21;;;;;;;64.00;31.90;;;;;;;13.54;69.99;100221.76;27241;1219;3027909;-74
2021/11/04 08:35:50;;;;;;;73.50;33.30;;;;;;;13.49;70.34;100222.41;27283;1218;3052204;-67
2021/11/04 08:38:19;;;;;;;68.70;32.50;;;;;;;13.35;70.82;100219.88;27213;1217;3026534;-66
2021/11/04 08:40:48;;;;;;;71.70;33.40;;;;;;;13.16;70.79;100219.41;27217;1217;3047652;-70
2021/11/04 08:43:17;;;;;;;53.60;26.20;;;;;;;13.12;71.62;100231.09;27270;1218;3026311;-64
2021/11/04 08:45:46;;;;;;;54.20;25.30;;;;;;;13.72;70.79;100238.27;27250;1218;3057841;-67
2021/11/04 08:48:18;;;;;;;61.10;28.70;;;;;;;14.21;69.12;100237.34;27217;1219;3028210;-67
2021/11/04 08:50:48;;;;;;;64.50;30.00;;;;;;;14.04;69.33;100239.64;27235;1218;3026993;-73
2021/11/04 08:53:18;;;;;;;73.60;34.30;;;;;;;13.90;70.02;100246.48;27236;1218;3026562;-69
2021/11/04 08:55:47;;;;;;;71.40;33.30;;;;;;;13.78;70.14;100254.60;27228;1219;3026260;-73
2021/11/04 08:58:16;;;;;;;70.10;33.20;;;;;;;13.61;70.45;100247.71;27228;1219;3025944;-74
2021/11/04 09:00:45;;;;;;;75.90;32.80;;;;;;;13.23;71.37;100251.39;27241;1218;3050791;-74
2021/11/04 09:03:16;;;;;;;53.40;23.40;;;;;;;13.26;71.71;100246.44;27346;1212;3025715;-74
2021/11/04 09:05:45;;;;;;;60.00;25.40;;;;;;;13.79;70.37;100246.10;27199;1218;3053739;-68
2021/11/04 09:08:14;;;;;;;55.80;27.30;;;;;;;14.08;69.15;100245.36;27194;1217;3026326;-71
2021/11/04 09:10:58;;;;;;;65.90;30.40;;;;;;;14.07;69.18;100248.24;27291;1219;3070536;-69
2021/11/04 09:13:28;;;;;;;63.20;30.10;;;;;;;13.82;69.79;100249.08;27255;1218;3025852;-68
2021/11/04 09:15:56;;;;;;;58.50;28.80;;;;;;;13.64;70.05;100246.32;27235;1217;3029352;-71
2021/11/04 09:18:26;;;;;;;72.20;33.10;;;;;;;13.56;70.23;100246.96;27299;1218;3070487;-67
2021/11/04 09:20:55;;;;;;;74.10;33.30;;;;;;;13.29;71.87;100241.70;27266;1219;3027266;-71
2021/11/04 09:23:24;;;;;;;48.50;23.60;;;;;;;13.25;72.30;100236.63;27199;1218;3052977;-71
2021/11/04 09:25:53;;;;;;;55.20;25.30;;;;;;;13.80;70.66;100220.34;27196;1218;3026336;-72
2021/11/04 09:28:22;;;;;;;59.40;30.00;;;;;;;14.33;69.27;100217.88;27228;1219;3054899;-74
2021/11/04 09:30:51;;;;;;;64.70;28.20;;;;;;;14.37;68.60;100224.66;27161;1209;3025945;-69
2021/11/04 09:33:20;;;;;;;64.10;31.10;;;;;;;14.13;69.11;100235.88;27267;1219;3049264;-67
2021/11/04 09:35:50;;;;;;;65.20;31.40;;;;;;;13.70;70.85;100240.48;27277;1218;3026019;-67
2021/11/04 09:38:18;;;;;;;78.80;33.30;;;;;;;13.48;71.58;100240.38;27216;1218;3025829;-74
2021/11/04 09:40:47;;;;;;;72.20;32.90;;;;;;;13.36;72.23;100238.80;27322;1217;3028300;-69
2021/11/04 09:43:16;;;;;;;56.10;25.70;;;;;;;13.37;72.46;100240.72;27230;1218;3052057;-65
2021/11/04 09:45:45;;;;;;;50.70;21.70;;;;;;;13.83;71.41;100235.83;27288;1217;3026673;-68
2021/11/04 09:48:15;;;;;;;68.80;32.40;;;;;;;14.41;69.40;100237.31;27229;1217;3048766;-68
2021/11/04 09:50:44;;;;;;;60.60;30.00;;;;;;;14.36;69.56;100240.76;27207;1210;3025950;-72
2021/11/04 09:53:13;;;;;;;71.70;35.00;;;;;;;14.31;69.97;100234.40;27266;1217;3026111;-68
2021/11/04 09:55:42;;;;;;;70.20;31.10;;;;;;;14.05;70.89;100230.02;27217;1217;3026615;-73
2021/11/04 09:58:12;;;;;;;78.70;34.40;;;;;;;13.57;72.15;100237.58;27232;1218;3054329;-63
2021/11/04 10:00:41;;;;;;;72.00;32.80;;;;;;;13.30;73.33;100232.84;27236;1209;3026091;-79
2021/11/04 10:03:13;;;;;;;60.00;26.00;;;;;;;13.18;74.23;100239.55;27197;1218;3048555;-69
2021/11/04 10:05:51;;;;;;;57.20;26.60;;;;;;;13.61;73.60;100236.99;27215;1219;3026557;-70
2021/11/04 10:08:31;;;;;;;66.50;29.20;;;;;;;13.93;71.74;100231.17;27268;1218;3053778;-73
2021/11/04 10:11:04;;;;;;;62.00;29.90;;;;;;;13.87;71.63;100231.84;28149;1217;3068208;-72
2021/11/04 10:13:33;;;;;;;66.70;31.20;;;;;;;13.79;71.75;100227.61;27510;1216;3026222;-68
2021/11/04 10:16:05;;;;;;;62.90;31.00;;;;;;;13.46;72.50;100234.38;27242;1218;3026059;-65
2021/11/04 10:18:39;;;;;;;65.40;30.10;;;;;;;13.25;73.34;100232.08;27283;1216;3027045;-68
2021/11/04 10:21:08;;;;;;;57.20;28.10;;;;;;;13.10;73.64;100237.52;27287;1216;3057842;-73
2021/11/04 10:23:46;;;;;;;45.30;21.90;;;;;;;13.08;73.46;100233.77;27261;1216;3026005;-70
2021/11/04 10:26:19;;;;;;;49.80;22.60;;;;;;;13.62;72.16;100224.26;27266;1217;3053628;-69
2021/11/04 10:28:50;;;;;;;63.60;27.20;;;;;;;14.16;71.00;100221.06;27337;1217;3028274;-76
2021/11/04 10:31:20;;;;;;;62.20;27.50;;;;;;;14.17;70.45;100210.80;27320;1218;3026010;-70
2021/11/04 10:33:50;;;;;;;65.20;27.50;;;;;;;13.88;71.36;100216.50;27274;1210;3026721;-71
2021/11/04 10:36:20;;;;;;;64.30;29.50;;;;;;;13.78;71.31;100221.31;27278;1216;3026926;-70
2021/11/04 10:38:50;;;;;;;64.30;29.10;;;;;;;13.50;72.03;100222.55;27287;1216;3025779;-67
2021/11/04 10:41:19;;;;;;;68.80;30.90;;;;;;;13.41;72.80;100225.52;27213;1218;3026970;-66
2021/11/04 10:43:54;;;;;;;55.50;23.50;;;;;;;13.35;73.41;100229.04;27307;1216;3026318;-65
2021/11/04 10:46:24;;;;;;;62.60;26.00;;;;;;;13.76;72.34;100234.66;27295;1217;3052367;-66
2021/11/04 10:48:58;;;;;;;75.20;28.60;;;;;;;14.13;70.73;100227.11;27267;1216;3026482;-73
2021/11/04 10:51:28;;;;;;;88.20;34.80;;;;;;;14.09;70.55;100224.71;27357;1216;3049750;-69
2021/11/04 10:54:15;;;;;;;79.00;33.60;;;;;;;14.00;70.87;100217.86;27311;1218;3026138;-68
2021/11/04 10:56:45;;;;;;;79.30;32.20;;;;;;;13.96;70.66;100213.38;27268;1216;3050745;-75
2021/11/04 10:59:16;;;;;;;88.80;34.30;;;;;;;13.74;71.69;100211.38;27243;1216;3026430;-65
2021/11/04 11:01:53;;;;;;;94.20;33.80;;;;;;;13.49;72.70;100208.84;27260;1216;3028117;-69
2021/11/04 11:04:31;;;;;;;62.50;25.40;;;;;;;13.55;73.28;100204.09;27265;1216;3051813;-72
2021/11/04 11:07:00;;;;;;;66.70;25.50;;;;;;;14.05;72.10;100199.94;27273;1216;3054382;-70
2021/11/04 11:09:30;;;;;;;66.20;26.80;;;;;;;14.49;70.65;100196.98;27297;1216;3026184;-64